Cassatt, South Carolina
Current Conditions -  °F | °C
As of 11:35 PM on Wednesday 26 Nov 2014 (Local Time) from KCDN Reporting Station
Clear Clear  
Wind Chill: 39°   Ceiling: Unl
Heat Index: 43°   Visibility: 10mi
Dew Point: 39°   Wind: 7mph
Humidity: 87%   Direction: 200°SSW
Pressure: 30.08"   Gusts: NA
Location:  34.36°N, 80.44°W
Report Text: KCDN 270435Z AUTO 20006KT 10SM CLR 06/04 A3008 RMK AO2 TSNO
Loading
Personal Weather Stations






























Interactive Weather Map New forecast layout! Learn more

10-Day Weather Forecast

Advertisements
Track Severe Weather on mobile